Time;durP1;ratioP1;P1;durP2;ratioP2;P2;SDS_P1;SDS_P2;PMS_P1;PMS_P2;Temp;Humidity;BMP_temperature;BMP_pressure;BME280_temperature;BME280_humidity;BME280_pressure;Samples;Min_cycle;Max_cycle;Signal;HPM_P1;HPM_P2
2021/03/22 00:00:23;;;;;;;;;;;5.00;99.90;;;;;;5022899;28;20041;-75
2021/03/22 00:02:50;;;;;;;19.17;6.20;;;5.00;99.90;;;;;;5046029;28;19927;-72
2021/03/22 00:05:16;;;;;;;17.45;6.28;;;5.10;99.90;;;;;;5038997;28;20368;-74
2021/03/22 00:07:42;;;;;;;28.55;6.78;;;5.10;99.90;;;;;;5043595;28;20069;-76
2021/03/22 00:10:08;;;;;;;21.77;6.68;;;5.10;99.90;;;;;;5051927;28;20065;-75
2021/03/22 00:12:35;;;;;;;23.52;7.15;;;5.10;99.90;;;;;;5044896;28;20049;-77
2021/03/22 00:15:03;;;;;;;17.15;6.75;;;5.10;99.90;;;;;;5032741;28;20336;-76
2021/03/22 00:17:29;;;;;;;19.08;6.85;;;5.10;99.90;;;;;;5042430;28;20520;-73
2021/03/22 00:19:55;;;;;;;23.63;7.57;;;5.30;99.90;;;;;;5051584;28;20045;-73
2021/03/22 00:22:20;;;;;;;23.63;7.93;;;5.10;99.90;;;;;;5049108;28;20048;-76
2021/03/22 00:24:46;;;;;;;17.45;6.32;;;5.30;99.90;;;;;;5032459;28;20036;-76
2021/03/22 00:27:12;;;;;;;18.50;6.07;;;5.10;99.90;;;;;;5041833;28;20060;-76
2021/03/22 00:29:38;;;;;;;15.43;7.13;;;5.30;99.90;;;;;;5053664;28;20041;-75
2021/03/22 00:32:04;;;;;;;21.15;6.72;;;5.20;99.90;;;;;;5051824;28;20029;-74
2021/03/22 00:34:30;;;;;;;25.27;6.50;;;5.20;99.90;;;;;;5046790;28;20087;-74
2021/03/22 00:36:56;;;;;;;19.83;7.38;;;5.20;99.90;;;;;;5044990;28;20482;-76
2021/03/22 00:39:22;;;;;;;23.55;7.18;;;5.30;99.90;;;;;;5051954;28;20033;-74
2021/03/22 00:41:48;;;;;;;;;;;5.20;99.90;;;;;;5001941;28;20346;-73
2021/03/22 00:44:13;;;;;;;19.92;6.80;;;5.20;99.90;;;;;;5030799;28;19917;-74
2021/03/22 00:46:39;;;;;;;24.60;7.75;;;5.20;99.90;;;;;;5038362;28;20048;-74
2021/03/22 00:49:06;;;;;;;22.38;7.53;;;5.20;99.90;;;;;;5033645;28;20458;-74
2021/03/22 00:51:32;;;;;;;18.85;7.32;;;5.30;99.90;;;;;;5051136;28;20120;-74
2021/03/22 00:53:57;;;;;;;21.42;7.20;;;5.20;99.90;;;;;;5013055;28;20041;-78
2021/03/22 00:56:23;;;;;;;19.55;6.85;;;5.30;99.90;;;;;;5045038;28;20033;-74
2021/03/22 00:58:49;;;;;;;22.40;6.97;;;5.30;99.90;;;;;;5040409;28;20040;-74
2021/03/22 01:01:15;;;;;;;21.83;6.93;;;5.30;99.90;;;;;;5044430;28;20204;-74
2021/03/22 01:03:41;;;;;;;19.60;5.72;;;5.20;99.90;;;;;;5039180;28;20033;-75
2021/03/22 01:06:08;;;;;;;22.17;6.07;;;5.30;99.90;;;;;;5046061;28;20085;-74
2021/03/22 01:08:38;;;;;;;14.45;6.03;;;5.20;99.90;;;;;;5026719;28;20044;-73
2021/03/22 01:11:16;;;;;;;14.38;5.72;;;5.30;99.90;;;;;;5043545;28;20045;-75
2021/03/22 01:13:52;;;;;;;24.73;6.85;;;5.30;99.90;;;;;;5049768;28;20071;-75
2021/03/22 01:16:25;;;;;;;14.82;5.13;;;5.30;99.90;;;;;;5037649;28;20045;-74
2021/03/22 01:18:53;;;;;;;18.75;6.15;;;5.30;99.90;;;;;;5047344;28;20103;-74
2021/03/22 01:21:20;;;;;;;15.50;5.00;;;5.20;99.90;;;;;;5049979;28;20048;-76
2021/03/22 01:23:46;;;;;;;19.42;5.10;;;5.20;99.90;;;;;;5049792;28;20045;-76
2021/03/22 01:26:13;;;;;;;;;;;5.20;99.90;;;;;;5049838;28;20033;-74
2021/03/22 01:28:40;;;;;;;17.48;5.72;;;5.20;99.90;;;;;;5017752;28;20007;-73
2021/03/22 01:31:06;;;;;;;20.65;5.63;;;5.20;99.90;;;;;;5049500;28;20504;-76
2021/03/22 01:33:36;;;;;;;20.60;6.03;;;5.20;99.90;;;;;;5037315;28;20037;-74
2021/03/22 01:36:15;;;;;;;18.85;5.70;;;5.40;99.90;;;;;;5050054;28;20039;-73
2021/03/22 01:38:42;;;;;;;22.45;6.40;;;5.20;99.90;;;;;;5035038;28;20041;-76
2021/03/22 01:41:20;;;;;;;18.60;5.57;;;5.20;99.90;;;;;;5033453;28;20033;-74
2021/03/22 01:44:17;;;;;;;15.77;5.40;;;5.20;99.90;;;;;;5046960;28;20033;-74
2021/03/22 01:46:46;;;;;;;16.93;5.63;;;5.20;99.90;;;;;;5048963;28;20037;-75
2021/03/22 01:49:13;;;;;;;11.88;4.78;;;5.20;99.90;;;;;;5050949;28;20037;-72
2021/03/22 01:51:40;;;;;;;17.30;4.97;;;5.20;99.90;;;;;;5046429;28;20041;-74
2021/03/22 01:54:08;;;;;;;16.23;5.53;;;5.40;99.90;;;;;;5048307;28;20029;-75
2021/03/22 01:56:52;;;;;;;14.80;5.63;;;5.30;99.90;;;;;;5017498;28;20038;-74
2021/03/22 01:59:26;;;;;;;13.27;4.00;;;5.20;99.90;;;;;;5047352;28;20041;-77
2021/03/22 02:01:58;;;;;;;14.10;5.85;;;5.20;99.90;;;;;;5039693;28;20072;-77
2021/03/22 02:04:25;;;;;;;17.98;4.90;;;5.20;99.90;;;;;;5036671;28;20324;-76
2021/03/22 02:06:51;;;;;;;17.65;4.93;;;5.20;99.90;;;;;;5044411;28;20469;-74
2021/03/22 02:09:17;;;;;;;15.40;4.85;;;5.30;99.90;;;;;;5037745;28;20044;-74
2021/03/22 02:11:43;;;;;;;15.88;5.03;;;5.30;99.90;;;;;;5046778;28;20586;-75
2021/03/22 02:14:10;;;;;;;9.95;4.43;;;5.30;99.90;;;;;;5049438;28;20043;-75
2021/03/22 02:16:42;;;;;;;18.50;4.57;;;5.30;99.90;;;;;;5031775;28;20471;-74
2021/03/22 02:19:44;;;;;;;19.55;4.25;;;5.30;99.90;;;;;;5047073;28;20053;-76
2021/03/22 02:22:28;;;;;;;16.73;4.82;;;5.20;99.90;;;;;;5031978;28;20041;-75
2021/03/22 02:25:26;;;;;;;15.90;4.13;;;5.20;99.90;;;;;;5012419;28;20049;-77
2021/03/22 02:27:58;;;;;;;17.00;3.80;;;5.10;99.90;;;;;;5028555;28;20049;-75
2021/03/22 02:30:57;;;;;;;15.23;3.55;;;5.10;99.90;;;;;;5050554;28;20039;-74
2021/03/22 02:33:25;;;;;;;12.57;3.33;;;5.10;99.90;;;;;;5044708;28;20505;-74
2021/03/22 02:36:01;;;;;;;21.70;3.90;;;5.10;99.90;;;;;;5048661;28;20040;-74
2021/03/22 02:38:39;;;;;;;12.10;3.40;;;5.10;99.90;;;;;;5035174;28;20045;-73
2021/03/22 02:41:08;;;;;;;10.82;3.05;;;5.10;99.90;;;;;;5046014;28;20291;-75
2021/03/22 02:43:36;;;;;;;11.63;3.00;;;5.10;99.90;;;;;;5045710;28;20046;-75
2021/03/22 02:46:04;;;;;;;16.45;3.67;;;5.10;99.90;;;;;;5034730;28;20033;-75
2021/03/22 02:48:32;;;;;;;8.82;3.22;;;5.10;99.90;;;;;;5045873;28;20052;-77
2021/03/22 02:51:27;;;;;;;7.68;3.38;;;5.00;99.90;;;;;;5051942;28;20497;-75
2021/03/22 02:54:03;;;;;;;9.32;3.53;;;5.00;99.90;;;;;;5034395;28;20052;-76
2021/03/22 02:56:52;;;;;;;12.57;3.60;;;5.00;99.90;;;;;;5051116;28;20040;-76
2021/03/22 02:59:21;;;;;;;9.27;2.70;;;5.00;99.90;;;;;;5042347;28;20124;-75
2021/03/22 03:01:58;;;;;;;14.82;3.70;;;5.00;99.90;;;;;;5053172;28;20417;-75
2021/03/22 03:04:25;;;;;;;8.20;3.55;;;5.00;99.90;;;;;;5047041;28;20036;-74
2021/03/22 03:06:58;;;;;;;10.95;3.22;;;5.00;99.90;;;;;;5054057;28;20431;-74
2021/03/22 03:09:29;;;;;;;8.80;3.38;;;5.00;99.90;;;;;;5035325;28;20049;-74
2021/03/22 03:11:56;;;;;;;10.55;4.13;;;5.10;99.90;;;;;;5044336;28;20048;-75
2021/03/22 03:14:23;;;;;;;9.48;3.40;;;5.00;99.90;;;;;;5021696;28;20838;-75
2021/03/22 03:16:49;;;;;;;16.10;4.80;;;5.00;99.90;;;;;;5045212;28;20043;-75
2021/03/22 03:19:15;;;;;;;9.98;4.03;;;5.00;99.90;;;;;;5040027;28;20045;-74
2021/03/22 03:21:41;;;;;;;10.80;3.03;;;5.00;99.90;;;;;;5018942;28;20369;-75
2021/03/22 03:24:10;;;;;;;11.68;3.53;;;5.00;99.90;;;;;;5053091;28;20037;-75
2021/03/22 03:26:37;;;;;;;10.05;3.60;;;5.00;99.90;;;;;;5052875;28;20102;-76
2021/03/22 03:29:05;;;;;;;15.23;3.20;;;5.00;99.90;;;;;;5057707;28;20132;-75
2021/03/22 03:31:31;;;;;;;8.73;2.97;;;5.00;99.90;;;;;;5033324;28;20041;-76
2021/03/22 03:33:58;;;;;;;11.77;3.35;;;5.00;99.90;;;;;;5048258;28;20056;-74
2021/03/22 03:36:24;;;;;;;10.18;3.35;;;5.00;99.90;;;;;;5034304;28;20408;-74
2021/03/22 03:38:49;;;;;;;12.52;3.00;;;5.00;99.90;;;;;;5028098;28;20119;-74
2021/03/22 03:41:15;;;;;;;10.57;3.08;;;5.00;99.90;;;;;;5029060;28;20072;-75
2021/03/22 03:43:41;;;;;;;15.38;3.88;;;5.00;99.90;;;;;;5055632;28;20037;-74
2021/03/22 03:46:07;;;;;;;12.13;3.17;;;5.00;99.90;;;;;;5033335;28;20033;-75
2021/03/22 03:48:32;;;;;;;8.60;2.90;;;5.00;99.90;;;;;;5047301;28;20087;-76
2021/03/22 03:51:01;;;;;;;7.03;2.50;;;5.00;99.90;;;;;;5051566;28;20389;-73
2021/03/22 03:53:28;;;;;;;8.35;2.85;;;5.10;99.90;;;;;;5044162;28;20462;-73
2021/03/22 03:55:58;;;;;;;10.15;2.60;;;5.10;99.90;;;;;;5051517;28;20489;-75
2021/03/22 03:58:25;;;;;;;10.43;2.60;;;5.10;99.90;;;;;;5048816;28;20047;-73
2021/03/22 04:00:51;;;;;;;8.38;2.97;;;5.00;99.90;;;;;;5030753;28;20469;-75
2021/03/22 04:03:18;;;;;;;8.82;2.72;;;5.10;99.90;;;;;;5051337;28;20037;-74
2021/03/22 04:05:45;;;;;;;7.47;2.83;;;5.10;99.90;;;;;;5044131;28;20053;-74
2021/03/22 04:08:14;;;;;;;7.35;2.88;;;5.10;99.90;;;;;;5049403;28;20040;-75
2021/03/22 04:10:40;;;;;;;7.78;2.63;;;5.10;99.90;;;;;;5050616;28;20029;-76
2021/03/22 04:13:05;;;;;;;9.65;2.97;;;5.10;99.90;;;;;;5042628;28;20125;-75
2021/03/22 04:15:32;;;;;;;9.00;2.70;;;5.10;99.90;;;;;;5043718;28;20045;-75
2021/03/22 04:17:57;;;;;;;8.40;2.72;;;5.10;99.90;;;;;;5033919;28;20052;-74
2021/03/22 04:20:23;;;;;;;8.95;3.03;;;5.00;99.90;;;;;;5048207;28;20036;-75
2021/03/22 04:22:49;;;;;;;9.13;2.80;;;5.10;99.90;;;;;;5033908;28;20061;-73
2021/03/22 04:25:15;;;;;;;13.30;2.78;;;5.10;99.90;;;;;;5051613;28;20037;-75
2021/03/22 04:27:41;;;;;;;9.95;2.65;;;5.10;99.90;;;;;;5033057;28;20051;-73
2021/03/22 04:30:07;;;;;;;9.50;3.05;;;5.10;99.90;;;;;;5039410;28;20033;-75
2021/03/22 04:32:34;;;;;;;6.82;2.67;;;5.10;99.90;;;;;;5050846;28;20458;-75
2021/03/22 04:34:59;;;;;;;6.68;2.35;;;5.20;99.90;;;;;;5030249;28;20091;-76
2021/03/22 04:37:25;;;;;;;6.85;2.85;;;5.10;99.90;;;;;;5050229;28;20449;-75
2021/03/22 04:39:51;;;;;;;7.95;2.50;;;5.10;99.90;;;;;;5033588;28;20072;-74
2021/03/22 04:42:17;;;;;;;8.07;2.47;;;5.10;99.90;;;;;;5029463;28;20064;-75
2021/03/22 04:44:43;;;;;;;7.65;2.80;;;5.00;99.90;;;;;;5050666;28;20501;-73
2021/03/22 04:47:09;;;;;;;4.60;2.22;;;5.00;99.90;;;;;;5029008;28;20033;-75
2021/03/22 04:49:34;;;;;;;5.13;2.55;;;5.00;99.90;;;;;;5048747;28;20037;-73
2021/03/22 04:52:00;;;;;;;8.07;2.45;;;5.00;99.90;;;;;;5034621;28;20148;-73
2021/03/22 04:54:26;;;;;;;5.78;2.15;;;5.00;99.90;;;;;;5051310;28;20094;-74
2021/03/22 04:56:52;;;;;;;7.97;2.95;;;5.00;99.90;;;;;;5023525;28;20487;-76
2021/03/22 04:59:18;;;;;;;;;;;5.00;99.90;;;;;;5047403;28;20366;-76
2021/03/22 05:01:43;;;;;;;8.05;2.42;;;5.00;99.90;;;;;;5049247;28;19917;-75
2021/03/22 05:04:09;;;;;;;9.50;2.53;;;5.00;99.90;;;;;;5050036;28;20029;-76
2021/03/22 05:06:36;;;;;;;10.98;2.67;;;5.00;99.90;;;;;;5033605;28;20048;-73
2021/03/22 05:09:03;;;;;;;7.25;2.75;;;5.00;99.90;;;;;;5032809;28;20040;-75
2021/03/22 05:11:28;;;;;;;6.40;2.40;;;5.00;99.90;;;;;;5043768;28;20372;-73
2021/03/22 05:13:54;;;;;;;8.77;2.50;;;5.20;99.90;;;;;;5041329;28;20048;-73
2021/03/22 05:16:21;;;;;;;7.25;2.40;;;5.00;99.90;;;;;;5038473;28;20060;-75
2021/03/22 05:18:48;;;;;;;9.23;2.60;;;5.00;99.90;;;;;;5042383;28;20033;-75
2021/03/22 05:21:13;;;;;;;7.70;2.50;;;5.00;99.90;;;;;;5031245;28;20040;-73
2021/03/22 05:23:40;;;;;;;6.65;2.70;;;5.00;99.90;;;;;;5029391;28;20041;-75
2021/03/22 05:26:09;;;;;;;7.72;2.88;;;5.00;99.90;;;;;;5046636;28;20136;-75
2021/03/22 05:28:39;;;;;;;10.18;2.55;;;5.00;99.90;;;;;;5048145;28;20147;-76
2021/03/22 05:31:05;;;;;;;6.78;3.15;;;4.90;99.90;;;;;;5028314;28;20033;-73
2021/03/22 05:33:31;;;;;;;7.50;2.72;;;5.00;99.90;;;;;;5049485;28;20025;-76
2021/03/22 05:36:00;;;;;;;7.85;2.53;;;5.00;99.90;;;;;;5047684;28;20163;-76
2021/03/22 05:38:26;;;;;;;8.27;2.63;;;5.00;99.90;;;;;;5038842;28;20206;-75
2021/03/22 05:40:55;;;;;;;8.75;2.75;;;5.00;99.90;;;;;;5047653;28;20044;-77
2021/03/22 05:43:42;;;;;;;6.18;2.25;;;5.00;99.90;;;;;;5036251;28;20041;-73
2021/03/22 05:46:42;;;;;;;9.50;2.20;;;5.10;99.90;;;;;;5027891;28;20051;-73
2021/03/22 05:49:26;;;;;;;7.18;2.30;;;5.20;99.90;;;;;;5047151;28;20488;-73
2021/03/22 05:52:15;;;;;;;6.20;2.50;;;5.20;99.90;;;;;;5042400;28;20125;-73
2021/03/22 05:54:50;;;;;;;10.02;2.53;;;5.20;99.90;;;;;;5043132;28;20120;-74
2021/03/22 05:57:40;;;;;;;7.32;2.28;;;5.20;99.90;;;;;;5049273;28;20037;-74
2021/03/22 06:00:18;;;;;;;8.27;2.47;;;5.20;99.90;;;;;;5040721;28;20128;-75
2021/03/22 06:03:00;;;;;;;7.38;2.42;;;5.20;99.90;;;;;;5045601;28;20033;-76
2021/03/22 06:05:59;;;;;;;11.25;2.75;;;5.10;99.90;;;;;;5043632;28;20041;-75
2021/03/22 06:08:50;;;;;;;9.95;2.70;;;5.10;99.90;;;;;;5046925;28;20504;-75
2021/03/22 06:11:38;;;;;;;7.65;2.90;;;5.10;99.90;;;;;;5037515;28;20121;-76
2021/03/22 06:14:25;;;;;;;10.30;3.03;;;5.10;99.90;;;;;;5048362;28;20505;-74
2021/03/22 06:17:31;;;;;;;7.10;2.50;;;5.10;99.90;;;;;;5046296;28;20132;-76
2021/03/22 06:20:00;;;;;;;8.52;2.47;;;5.10;99.90;;;;;;5047335;28;20055;-76
2021/03/22 06:22:30;;;;;;;5.43;2.55;;;5.10;99.90;;;;;;5030989;28;20045;-75
2021/03/22 06:24:58;;;;;;;6.72;2.20;;;5.10;99.90;;;;;;5044521;28;20094;-74
2021/03/22 06:27:24;;;;;;;9.07;2.25;;;5.10;99.90;;;;;;5040283;28;20041;-76
2021/03/22 06:29:54;;;;;;;;;;;5.20;99.90;;;;;;5058003;28;20064;-74
2021/03/22 06:32:26;;;;;;;4.70;2.10;;;5.10;99.90;;;;;;5045391;28;20347;-75
2021/03/22 06:35:05;;;;;;;8.50;2.50;;;5.20;99.90;;;;;;5022545;28;20356;-76
2021/03/22 06:37:34;;;;;;;8.57;2.50;;;5.20;99.90;;;;;;5040045;28;20056;-75
2021/03/22 06:40:06;;;;;;;8.50;3.00;;;5.20;99.90;;;;;;5045879;28;20041;-74
2021/03/22 06:42:32;;;;;;;7.97;2.45;;;5.20;99.90;;;;;;5047193;28;20067;-73
2021/03/22 06:44:58;;;;;;;6.68;2.35;;;5.20;99.90;;;;;;5027875;28;20049;-79
2021/03/22 06:47:28;;;;;;;8.68;2.65;;;5.20;99.90;;;;;;5035790;28;20036;-78
2021/03/22 06:50:31;;;;;;;6.32;2.63;;;5.50;99.90;;;;;;5037894;28;20059;-80
2021/03/22 06:52:57;;;;;;;10.02;2.83;;;5.30;99.90;;;;;;5033015;28;20117;-78
2021/03/22 06:55:31;;;;;;;8.77;3.05;;;5.60;99.90;;;;;;5029195;28;20128;-77
2021/03/22 06:57:57;;;;;;;10.40;2.60;;;5.40;99.90;;;;;;5013018;28;20371;-74
2021/03/22 07:00:30;;;;;;;7.50;2.65;;;5.40;99.90;;;;;;5036849;28;20450;-75
2021/03/22 07:03:19;;;;;;;10.75;2.72;;;5.40;99.90;;;;;;5017643;28;20041;-76
2021/03/22 07:05:45;;;;;;;7.35;2.67;;;5.40;99.90;;;;;;5009390;28;20073;-76
2021/03/22 07:08:12;;;;;;;7.70;2.65;;;5.30;99.90;;;;;;5043661;28;20114;-75
2021/03/22 07:10:41;;;;;;;6.75;2.20;;;5.30;99.90;;;;;;5040362;28;20045;-78
2021/03/22 07:13:23;;;;;;;6.20;2.08;;;5.40;99.90;;;;;;5032649;28;20059;-79
2021/03/22 07:15:51;;;;;;;8.95;2.60;;;5.40;99.90;;;;;;5045323;28;20041;-77
2021/03/22 07:18:27;;;;;;;8.18;2.17;;;5.60;99.90;;;;;;5025523;28;20132;-73
2021/03/22 07:21:13;;;;;;;5.93;2.53;;;6.40;99.90;;;;;;5038050;28;20381;-73
2021/03/22 07:24:07;;;;;;;5.78;2.00;;;5.90;99.90;;;;;;5043193;28;20055;-77
2021/03/22 07:27:09;;;;;;;6.55;2.35;;;6.10;99.90;;;;;;5036903;28;20029;-75
2021/03/22 07:29:53;;;;;;;7.43;1.90;;;6.20;99.90;;;;;;5052859;28;20033;-72
2021/03/22 07:32:46;;;;;;;4.10;2.13;;;6.30;99.90;;;;;;5049077;28;20040;-75
2021/03/22 07:35:19;;;;;;;6.07;2.20;;;6.40;99.90;;;;;;5048552;28;20051;-76
2021/03/22 07:38:10;;;;;;;6.28;1.98;;;6.50;99.90;;;;;;5046594;28;20045;-76
2021/03/22 07:40:44;;;;;;;7.40;2.40;;;6.50;99.90;;;;;;5021462;28;20048;-74
2021/03/22 07:43:28;;;;;;;5.43;2.10;;;6.50;99.90;;;;;;5040703;28;20442;-79
2021/03/22 07:46:28;;;;;;;8.13;2.35;;;6.50;99.90;;;;;;5050213;28;20122;-79
2021/03/22 07:49:21;;;;;;;9.02;2.38;;;6.50;99.90;;;;;;5045671;28;20327;-77
2021/03/22 07:51:56;;;;;;;6.80;2.60;;;6.50;99.90;;;;;;5041707;28;20541;-74
2021/03/22 07:55:09;;;;;;;12.13;2.50;;;6.40;99.90;;;;;;5009829;28;20045;-76
2021/03/22 07:57:57;;;;;;;7.65;2.47;;;6.40;99.90;;;;;;4976414;28;20122;-74
2021/03/22 08:00:50;;;;;;;10.73;2.67;;;6.40;99.90;;;;;;4973770;28;20125;-76
2021/03/22 08:03:43;;;;;;;7.72;2.60;;;6.30;99.90;;;;;;5040180;28;20049;-76
2021/03/22 08:06:16;;;;;;;6.60;2.40;;;6.30;99.90;;;;;;5039563;28;20037;-78
2021/03/22 08:09:18;;;;;;;13.75;2.85;;;6.30;99.90;;;;;;5031815;28;20037;-76
2021/03/22 08:11:57;;;;;;;;;;;6.30;99.90;;;;;;5046905;28;20572;-78
2021/03/22 08:14:35;;;;;;;12.75;2.50;;;6.20;99.90;;;;;;5027708;28;21609;-76
2021/03/22 08:17:16;;;;;;;10.32;3.05;;;6.20;99.90;;;;;;5022359;28;20041;-76
2021/03/22 08:19:54;;;;;;;8.85;3.13;;;6.20;99.90;;;;;;5021768;28;20041;-80
2021/03/22 08:22:40;;;;;;;6.32;2.55;;;6.20;99.90;;;;;;5050681;28;20463;-78
2021/03/22 08:25:21;;;;;;;11.95;3.10;;;6.30;99.90;;;;;;5045582;28;20048;-75
2021/03/22 08:28:05;;;;;;;9.80;2.65;;;6.40;99.90;;;;;;5048868;28;20044;-79
2021/03/22 08:30:48;;;;;;;6.22;2.42;;;6.50;99.90;;;;;;5045432;28;20036;-76
2021/03/22 08:33:30;;;;;;;9.65;2.75;;;6.60;99.90;;;;;;5047387;28;20063;-77
2021/03/22 08:36:34;;;;;;;5.90;2.47;;;6.70;99.90;;;;;;5044140;28;20076;-77
2021/03/22 08:39:22;;;;;;;4.15;2.13;;;6.70;99.90;;;;;;5041885;28;20037;-74
2021/03/22 08:42:16;;;;;;;4.55;1.90;;;6.80;99.90;;;;;;5025579;28;20118;-77
2021/03/22 08:45:02;;;;;;;6.50;2.13;;;6.80;99.90;;;;;;5042509;28;20048;-78
2021/03/22 08:47:42;;;;;;;7.75;2.05;;;6.80;99.90;;;;;;5044683;28;20052;-77
2021/03/22 08:50:19;;;;;;;5.57;2.20;;;6.90;99.90;;;;;;5049353;28;20048;-75
2021/03/22 08:53:16;;;;;;;6.15;1.95;;;7.00;99.90;;;;;;5044596;28;20037;-77
2021/03/22 08:55:44;;;;;;;4.63;1.73;;;7.10;99.90;;;;;;5027973;28;20033;-78
2021/03/22 08:58:22;;;;;;;8.13;2.45;;;7.10;99.90;;;;;;5042452;28;20037;-76
2021/03/22 09:00:49;;;;;;;9.68;2.47;;;7.20;99.90;;;;;;5044779;28;20435;-74
2021/03/22 09:03:16;;;;;;;6.05;2.60;;;7.20;99.90;;;;;;5051216;28;20053;-77
2021/03/22 09:05:43;;;;;;;;;;;7.30;99.90;;;;;;5050933;28;20047;-77
2021/03/22 09:08:37;;;;;;;9.68;2.00;;;7.10;99.90;;;;;;5049610;28;19923;-75
2021/03/22 09:11:14;;;;;;;4.55;2.03;;;7.30;99.90;;;;;;5047374;28;20061;-77
2021/03/22 09:14:09;;;;;;;10.07;2.20;;;7.30;99.90;;;;;;5047232;28;20120;-73
2021/03/22 09:16:41;;;;;;;6.85;1.60;;;7.30;99.90;;;;;;4981659;28;20136;-76
2021/03/22 09:21:59;;;;;;;6.32;2.15;;;7.20;99.90;;;;;;5035403;28;20842;-73
2021/03/22 09:24:43;;;;;;;9.20;2.78;;;7.20;99.90;;;;;;5047496;28;20075;-73
2021/03/22 09:27:22;;;;;;;4.45;1.80;;;7.20;99.90;;;;;;5042864;28;20132;-75
2021/03/22 09:30:14;;;;;;;9.63;2.13;;;7.20;99.90;;;;;;5045257;28;20046;-77
2021/03/22 09:32:43;;;;;;;4.78;1.60;;;7.30;99.90;;;;;;5046872;28;20071;-79
2021/03/22 09:35:15;;;;;;;3.22;1.40;;;7.40;99.90;;;;;;5048961;28;20505;-75
2021/03/22 09:38:02;;;;;;;4.22;1.35;;;7.50;99.90;;;;;;5050124;28;20037;-76
2021/03/22 09:40:28;;;;;;;4.10;1.30;;;7.60;99.90;;;;;;5018187;28;20033;-78
2021/03/22 09:43:06;;;;;;;3.17;1.50;;;7.70;99.90;;;;;;5046416;28;20093;-73
2021/03/22 09:45:33;;;;;;;4.30;1.40;;;7.70;99.90;;;;;;5039775;28;20040;-76
2021/03/22 09:48:05;;;;;;;3.45;1.40;;;7.70;99.90;;;;;;5033552;28;20494;-74
2021/03/22 09:50:34;;;;;;;3.05;1.55;;;7.70;99.50;;;;;;5043981;28;20043;-75
2021/03/22 09:53:12;;;;;;;4.45;1.48;;;7.70;99.20;;;;;;5039483;28;20041;-73
2021/03/22 09:55:54;;;;;;;5.18;1.65;;;7.70;99.00;;;;;;5032652;28;20069;-75
2021/03/22 09:58:46;;;;;;;3.42;1.50;;;7.80;99.50;;;;;;5045336;28;20049;-73
2021/03/22 10:01:30;;;;;;;5.25;1.85;;;7.90;97.40;;;;;;5038857;28;20041;-74
2021/03/22 10:04:17;;;;;;;3.95;1.60;;;7.90;97.80;;;;;;5024040;28;20037;-73
2021/03/22 10:06:46;;;;;;;6.40;1.95;;;8.10;97.60;;;;;;5040319;28;20112;-74
2021/03/22 10:09:33;;;;;;;4.90;1.85;;;8.20;98.10;;;;;;5048801;28;20060;-75
2021/03/22 10:12:19;;;;;;;3.25;1.50;;;8.10;96.70;;;;;;5047410;28;20049;-73
2021/03/22 10:15:09;;;;;;;3.22;1.52;;;8.10;96.50;;;;;;5046566;28;20679;-75
2021/03/22 10:17:38;;;;;;;3.60;1.40;;;8.10;96.00;;;;;;5030919;28;20060;-75
2021/03/22 10:20:24;;;;;;;2.55;1.30;;;8.10;94.70;;;;;;5047869;28;20178;-77
2021/03/22 10:23:22;;;;;;;3.03;1.30;;;8.10;93.60;;;;;;5047674;28;20071;-74
2021/03/22 10:25:51;;;;;;;3.90;1.23;;;8.20;94.00;;;;;;5014156;28;20046;-75
2021/03/22 10:28:23;;;;;;;2.95;1.40;;;8.30;94.10;;;;;;5046998;28;20412;-74
2021/03/22 10:31:04;;;;;;;3.35;1.33;;;8.40;94.00;;;;;;5047643;28;20466;-75
2021/03/22 10:33:30;;;;;;;3.58;1.40;;;8.40;94.20;;;;;;5043836;28;20037;-77
2021/03/22 10:36:00;;;;;;;2.95;1.40;;;8.40;94.50;;;;;;5029478;28;20033;-72
2021/03/22 10:38:30;;;;;;;5.57;1.50;;;8.40;93.00;;;;;;5037337;28;20091;-73
2021/03/22 10:40:57;;;;;;;2.55;1.20;;;8.30;93.10;;;;;;5047424;28;20488;-77
2021/03/22 10:43:29;;;;;;;4.28;1.30;;;8.30;93.30;;;;;;5045404;28;20037;-76
2021/03/22 10:45:57;;;;;;;3.85;1.45;;;8.40;92.30;;;;;;5046039;28;20041;-75
2021/03/22 10:48:26;;;;;;;3.30;1.17;;;8.40;92.50;;;;;;5028513;28;20037;-75
2021/03/22 10:51:19;;;;;;;3.40;1.38;;;8.40;92.10;;;;;;5044966;28;20110;-79
2021/03/22 10:54:04;;;;;;;3.38;1.63;;;8.40;92.60;;;;;;5023247;28;20041;-76
2021/03/22 10:56:38;;;;;;;3.53;1.20;;;8.50;92.90;;;;;;5025928;28;20037;-76
2021/03/22 10:59:19;;;;;;;3.63;1.30;;;8.60;93.20;;;;;;5040935;28;20463;-76
2021/03/22 11:01:45;;;;;;;5.18;1.73;;;8.50;93.40;;;;;;5020317;28;20124;-75
2021/03/22 11:04:14;;;;;;;;;;;8.40;92.60;;;;;;5032132;28;20041;-78
2021/03/22 11:06:41;;;;;;;3.30;1.60;;;8.40;93.60;;;;;;5043995;28;19933;-76
2021/03/22 11:09:15;;;;;;;4.50;1.77;;;8.40;94.20;;;;;;5049130;28;20106;-77
2021/03/22 11:11:41;;;;;;;4.45;1.40;;;8.40;93.90;;;;;;5051386;28;20087;-75
2021/03/22 11:14:13;;;;;;;3.25;1.40;;;8.50;94.40;;;;;;5033952;28;20303;-74
2021/03/22 11:16:42;;;;;;;4.20;1.85;;;8.40;94.20;;;;;;5051116;28;20041;-77
2021/03/22 11:19:44;;;;;;;5.47;1.65;;;8.30;94.80;;;;;;5050581;28;20041;-78
2021/03/22 11:22:30;;;;;;;6.28;1.80;;;8.10;96.20;;;;;;5051486;28;20045;-78
2021/03/22 11:24:58;;;;;;;6.68;2.22;;;8.10;97.40;;;;;;5050521;28;20055;-77
2021/03/22 11:27:46;;;;;;;5.05;2.13;;;8.10;97.90;;;;;;5032649;28;20041;-76
2021/03/22 11:30:12;;;;;;;;;;;8.20;97.90;;;;;;5039287;28;20059;-76
2021/03/22 11:32:46;;;;;;;5.22;2.17;;;8.30;96.40;;;;;;5048844;28;20028;-75
2021/03/22 11:35:24;;;;;;;5.90;1.95;;;8.30;97.00;;;;;;5046026;28;20033;-74
2021/03/22 11:37:53;;;;;;;7.35;2.08;;;8.30;97.70;;;;;;5044175;28;20045;-76
2021/03/22 11:40:24;;;;;;;4.25;1.58;;;8.30;97.50;;;;;;5049535;28;20425;-74
2021/03/22 11:43:03;;;;;;;3.25;1.60;;;8.20;97.30;;;;;;5040830;28;20037;-75
2021/03/22 11:45:41;;;;;;;3.70;1.50;;;8.20;96.60;;;;;;5036212;28;20366;-73
2021/03/22 11:48:19;;;;;;;4.45;1.30;;;8.30;96.60;;;;;;5038526;28;20458;-75
2021/03/22 11:50:47;;;;;;;2.75;1.10;;;8.40;95.60;;;;;;5028820;28;20045;-77
2021/03/22 11:53:20;;;;;;;5.53;1.40;;;8.50;95.50;;;;;;5040414;28;20033;-75
2021/03/22 11:55:48;;;;;;;2.83;1.42;;;8.60;95.10;;;;;;5038890;28;20041;-74
2021/03/22 11:58:28;;;;;;;4.72;1.40;;;8.60;95.80;;;;;;5049361;28;20041;-78
2021/03/22 12:00:55;;;;;;;3.17;1.60;;;8.50;95.80;;;;;;5045861;28;20120;-75
2021/03/22 12:03:30;;;;;;;4.22;1.35;;;8.40;96.10;;;;;;5028065;28;20041;-74
2021/03/22 12:06:06;;;;;;;4.82;1.40;;;8.30;96.50;;;;;;5046028;28;20111;-75
2021/03/22 12:08:50;;;;;;;4.18;1.55;;;8.30;97.00;;;;;;5044957;28;20367;-73
2021/03/22 12:11:23;;;;;;;4.43;1.65;;;8.20;96.70;;;;;;5037145;28;20080;-75
2021/03/22 12:13:54;;;;;;;3.90;1.55;;;8.10;97.10;;;;;;5029750;28;20087;-75
2021/03/22 12:16:26;;;;;;;7.00;1.50;;;8.10;97.50;;;;;;5056948;28;20040;-73
2021/03/22 12:18:55;;;;;;;2.60;1.25;;;8.10;97.50;;;;;;5031752;28;20116;-75
2021/03/22 12:21:22;;;;;;;4.68;1.10;;;8.50;97.60;;;;;;5050804;28;20504;-78
2021/03/22 12:23:48;;;;;;;2.10;1.33;;;8.00;96.90;;;;;;5028557;28;20502;-77
2021/03/22 12:26:18;;;;;;;2.65;1.13;;;7.80;96.80;;;;;;5044361;28;20066;-76
2021/03/22 12:28:55;;;;;;;2.25;1.10;;;7.80;96.80;;;;;;5046944;28;20099;-74
2021/03/22 12:31:28;;;;;;;3.00;1.35;;;8.60;96.90;;;;;;5021704;28;20045;-74
2021/03/22 12:33:59;;;;;;;3.35;1.15;;;7.80;95.90;;;;;;5043536;28;20103;-74
2021/03/22 12:36:25;;;;;;;3.30;0.90;;;7.80;95.60;;;;;;5051644;28;20425;-77
2021/03/22 12:38:52;;;;;;;3.13;1.10;;;7.80;95.70;;;;;;5050003;28;20422;-75
2021/03/22 12:41:27;;;;;;;2.45;1.08;;;7.90;95.80;;;;;;5027847;28;20040;-76
2021/03/22 12:43:53;;;;;;;3.80;1.30;;;8.00;95.60;;;;;;5033182;28;20099;-72
2021/03/22 12:46:19;;;;;;;3.33;1.42;;;8.00;95.00;;;;;;5032550;28;20132;-75
2021/03/22 12:48:45;;;;;;;3.83;1.25;;;7.90;95.20;;;;;;5042807;28;20511;-75
2021/03/22 12:51:11;;;;;;;2.90;1.10;;;7.90;95.20;;;;;;5031309;28;20033;-73
2021/03/22 12:53:37;;;;;;;5.93;2.38;;;7.80;95.60;;;;;;5027670;28;20029;-73
2021/03/22 12:56:04;;;;;;;2.30;1.25;;;7.80;95.90;;;;;;5012780;28;20112;-73
2021/03/22 12:58:30;;;;;;;3.33;1.20;;;7.80;96.30;;;;;;5031493;28;20064;-72
2021/03/22 13:00:58;;;;;;;5.45;1.40;;;7.90;96.90;;;;;;5028028;28;20169;-77
2021/03/22 13:03:27;;;;;;;3.70;1.35;;;7.90;96.60;;;;;;5049772;28;20037;-75
2021/03/22 13:05:55;;;;;;;2.05;1.30;;;8.00;96.40;;;;;;5040212;28;20553;-75
2021/03/22 13:08:26;;;;;;;3.00;1.45;;;7.90;95.90;;;;;;5046713;28;20052;-76
2021/03/22 13:10:53;;;;;;;4.72;1.38;;;7.80;95.70;;;;;;5045860;28;20044;-79
2021/03/22 13:13:20;;;;;;;4.22;1.20;;;7.70;96.30;;;;;;5000535;28;20439;-76
2021/03/22 13:15:47;;;;;;;;;;;7.70;97.10;;;;;;5020539;28;20110;-73
2021/03/22 13:18:17;;;;;;;2.75;1.40;;;7.80;96.80;;;;;;5050883;28;19921;-74
2021/03/22 13:20:46;;;;;;;4.03;1.85;;;7.70;97.10;;;;;;5050050;28;20044;-75
2021/03/22 13:23:12;;;;;;;4.45;1.30;;;7.70;97.80;;;;;;5044333;28;20029;-76
2021/03/22 13:25:39;;;;;;;3.60;1.73;;;7.80;98.80;;;;;;5029779;28;20043;-77
2021/03/22 13:28:22;;;;;;;4.43;1.77;;;7.70;99.60;;;;;;5017865;28;20158;-75
2021/03/22 13:30:48;;;;;;;5.13;1.70;;;7.70;99.90;;;;;;5039876;28;20037;-74